sensor_id;sensor_type;location;lat;lon;timestamp;P1;durP1;ratioP1;P2;durP2;ratioP2
71902;SDS011;59778;50.310;18.780;2023-07-29T00:11:06;10.40;;;5.57;;
71902;SDS011;59778;50.310;18.780;2023-07-29T00:26:27;13.53;;;6.80;;
71902;SDS011;59778;50.310;18.780;2023-07-29T00:41:49;15.97;;;7.50;;
71902;SDS011;59778;50.310;18.780;2023-07-29T00:57:11;14.13;;;8.33;;
71902;SDS011;59778;50.310;18.780;2023-07-29T01:28:01;18.03;;;9.10;;
71902;SDS011;59778;50.310;18.780;2023-07-29T01:43:22;13.47;;;7.50;;
71902;SDS011;59778;50.310;18.780;2023-07-29T01:58:46;12.90;;;8.20;;
71902;SDS011;59778;50.310;18.780;2023-07-29T02:14:07;12.40;;;7.20;;
71902;SDS011;59778;50.310;18.780;2023-07-29T02:29:29;13.07;;;7.97;;
71902;SDS011;59778;50.310;18.780;2023-07-29T02:44:51;13.87;;;7.13;;
71902;SDS011;59778;50.310;18.780;2023-07-29T03:00:12;12.77;;;7.53;;
71902;SDS011;59778;50.310;18.780;2023-07-29T03:15:34;14.03;;;7.47;;
71902;SDS011;59778;50.310;18.780;2023-07-29T03:30:56;20.23;;;10.97;;
71902;SDS011;59778;50.310;18.780;2023-07-29T03:46:17;18.43;;;10.17;;
71902;SDS011;59778;50.310;18.780;2023-07-29T04:01:42;18.77;;;11.13;;
71902;SDS011;59778;50.310;18.780;2023-07-29T04:17:10;18.03;;;9.90;;
71902;SDS011;59778;50.310;18.780;2023-07-29T04:32:32;17.70;;;10.67;;
71902;SDS011;59778;50.310;18.780;2023-07-29T04:47:53;15.13;;;8.60;;
71902;SDS011;59778;50.310;18.780;2023-07-29T05:03:14;15.97;;;8.33;;
71902;SDS011;59778;50.310;18.780;2023-07-29T05:18:36;13.67;;;7.53;;
71902;SDS011;59778;50.310;18.780;2023-07-29T05:33:58;12.30;;;7.30;;
71902;SDS011;59778;50.310;18.780;2023-07-29T05:49:19;9.23;;;5.87;;
71902;SDS011;59778;50.310;18.780;2023-07-29T06:04:41;9.83;;;5.27;;
71902;SDS011;59778;50.310;18.780;2023-07-29T06:20:02;8.90;;;4.20;;
71902;SDS011;59778;50.310;18.780;2023-07-29T06:35:24;8.30;;;3.50;;
71902;SDS011;59778;50.310;18.780;2023-07-29T06:50:45;7.50;;;3.53;;
71902;SDS011;59778;50.310;18.780;2023-07-29T07:06:07;7.63;;;3.10;;
71902;SDS011;59778;50.310;18.780;2023-07-29T07:21:28;8.47;;;3.50;;
71902;SDS011;59778;50.310;18.780;2023-07-29T07:36:49;6.87;;;3.17;;
71902;SDS011;59778;50.310;18.780;2023-07-29T07:52:12;4.73;;;2.30;;
71902;SDS011;59778;50.310;18.780;2023-07-29T08:07:33;6.97;;;2.77;;
71902;SDS011;59778;50.310;18.780;2023-07-29T08:22:54;5.07;;;2.23;;
71902;SDS011;59778;50.310;18.780;2023-07-29T08:38:17;5.57;;;2.10;;
71902;SDS011;59778;50.310;18.780;2023-07-29T08:53:38;5.17;;;2.17;;
71902;SDS011;59778;50.310;18.780;2023-07-29T09:09:00;4.83;;;2.00;;
71902;SDS011;59778;50.310;18.780;2023-07-29T09:24:22;3.47;;;1.70;;
71902;SDS011;59778;50.310;18.780;2023-07-29T09:39:44;4.23;;;2.00;;
71902;SDS011;59778;50.310;18.780;2023-07-29T09:55:06;3.50;;;1.63;;
71902;SDS011;59778;50.310;18.780;2023-07-29T10:10:28;3.40;;;1.83;;
71902;SDS011;59778;50.310;18.780;2023-07-29T10:25:53;2.80;;;1.70;;
71902;SDS011;59778;50.310;18.780;2023-07-29T10:41:21;3.60;;;1.87;;
71902;SDS011;59778;50.310;18.780;2023-07-29T10:56:46;2.97;;;1.70;;
71902;SDS011;59778;50.310;18.780;2023-07-29T11:28:00;2.73;;;1.70;;
71902;SDS011;59778;50.310;18.780;2023-07-29T11:43:21;3.40;;;1.73;;
71902;SDS011;59778;50.310;18.780;2023-07-29T11:58:43;3.63;;;1.90;;
71902;SDS011;59778;50.310;18.780;2023-07-29T12:14:07;3.17;;;2.00;;
71902;SDS011;59778;50.310;18.780;2023-07-29T12:29:28;3.23;;;2.00;;
71902;SDS011;59778;50.310;18.780;2023-07-29T12:44:49;5.17;;;2.40;;
71902;SDS011;59778;50.310;18.780;2023-07-29T13:00:11;3.87;;;1.87;;
71902;SDS011;59778;50.310;18.780;2023-07-29T13:15:33;2.70;;;1.70;;
71902;SDS011;59778;50.310;18.780;2023-07-29T13:30:54;3.40;;;1.50;;
71902;SDS011;59778;50.310;18.780;2023-07-29T13:46:15;2.10;;;1.40;;
71902;SDS011;59778;50.310;18.780;2023-07-29T14:01:37;3.10;;;1.30;;
71902;SDS011;59778;50.310;18.780;2023-07-29T14:16:58;3.23;;;1.50;;
71902;SDS011;59778;50.310;18.780;2023-07-29T14:32:19;2.57;;;1.40;;
71902;SDS011;59778;50.310;18.780;2023-07-29T14:47:40;3.23;;;1.80;;
71902;SDS011;59778;50.310;18.780;2023-07-29T15:03:02;3.67;;;1.70;;
71902;SDS011;59778;50.310;18.780;2023-07-29T15:18:23;3.83;;;2.20;;
71902;SDS011;59778;50.310;18.780;2023-07-29T15:33:45;3.10;;;1.57;;
71902;SDS011;59778;50.310;18.780;2023-07-29T15:49:06;4.30;;;1.93;;
71902;SDS011;59778;50.310;18.780;2023-07-29T16:04:28;6.03;;;2.80;;
71902;SDS011;59778;50.310;18.780;2023-07-29T16:19:53;3.57;;;1.60;;
71902;SDS011;59778;50.310;18.780;2023-07-29T16:35:16;4.57;;;1.63;;
71902;SDS011;59778;50.310;18.780;2023-07-29T16:50:37;4.07;;;1.63;;
71902;SDS011;59778;50.310;18.780;2023-07-29T17:05:59;2.07;;;0.90;;
71902;SDS011;59778;50.310;18.780;2023-07-29T17:21:20;1.97;;;0.97;;
71902;SDS011;59778;50.310;18.780;2023-07-29T17:36:41;2.97;;;1.30;;
71902;SDS011;59778;50.310;18.780;2023-07-29T17:52:02;1.93;;;0.93;;
71902;SDS011;59778;50.310;18.780;2023-07-29T18:07:25;2.30;;;0.97;;
71902;SDS011;59778;50.310;18.780;2023-07-29T18:22:46;1.97;;;0.80;;
71902;SDS011;59778;50.310;18.780;2023-07-29T18:38:09;3.73;;;0.97;;
71902;SDS011;59778;50.310;18.780;2023-07-29T18:53:30;3.00;;;1.47;;
71902;SDS011;59778;50.310;18.780;2023-07-29T19:08:52;3.93;;;1.20;;
71902;SDS011;59778;50.310;18.780;2023-07-29T19:24:13;4.73;;;1.50;;
71902;SDS011;59778;50.310;18.780;2023-07-29T19:39:34;5.70;;;1.60;;
71902;SDS011;59778;50.310;18.780;2023-07-29T19:54:55;6.70;;;2.27;;
71902;SDS011;59778;50.310;18.780;2023-07-29T20:10:16;7.97;;;2.70;;
71902;SDS011;59778;50.310;18.780;2023-07-29T20:25:38;7.57;;;2.50;;
71902;SDS011;59778;50.310;18.780;2023-07-29T20:40:59;4.23;;;1.80;;
71902;SDS011;59778;50.310;18.780;2023-07-29T20:56:21;3.83;;;1.40;;
71902;SDS011;59778;50.310;18.780;2023-07-29T21:11:42;3.83;;;1.43;;
71902;SDS011;59778;50.310;18.780;2023-07-29T21:27:04;4.83;;;1.50;;
71902;SDS011;59778;50.310;18.780;2023-07-29T21:42:25;4.37;;;1.43;;
71902;SDS011;59778;50.310;18.780;2023-07-29T21:57:46;4.60;;;1.23;;
71902;SDS011;59778;50.310;18.780;2023-07-29T22:13:08;6.43;;;1.47;;
71902;SDS011;59778;50.310;18.780;2023-07-29T22:28:29;3.00;;;1.30;;
71902;SDS011;59778;50.310;18.780;2023-07-29T22:43:51;5.33;;;1.07;;
71902;SDS011;59778;50.310;18.780;2023-07-29T22:59:13;2.63;;;1.30;;
71902;SDS011;59778;50.310;18.780;2023-07-29T23:14:34;7.83;;;1.60;;
71902;SDS011;59778;50.310;18.780;2023-07-29T23:29:55;5.90;;;1.40;;
71902;SDS011;59778;50.310;18.780;2023-07-29T23:45:19;3.63;;;1.20;;
